sensor_id;sensor_type;location;lat;lon;timestamp;pressure;altitude;pressure_sealevel;temperature;humidity
55994;BME280;67425;52.126;20.638;2024-02-26T00:01:14;57819.56;;;-144.78;63.79
55994;BME280;67425;52.126;20.638;2024-02-26T00:03:39;57809.19;;;-144.78;63.00
55994;BME280;67425;52.126;20.638;2024-02-26T00:06:07;57802.94;;;-144.78;63.29
55994;BME280;67425;52.126;20.638;2024-02-26T00:08:32;57813.34;;;-144.78;62.14
55994;BME280;67425;52.126;20.638;2024-02-26T00:10:57;57809.19;;;-144.78;61.96
55994;BME280;67425;52.126;20.638;2024-02-26T00:13:22;57817.47;;;-144.78;61.80
55994;BME280;67425;52.126;20.638;2024-02-26T00:15:48;57813.34;;;-144.78;61.69
55994;BME280;67425;52.126;20.638;2024-02-26T00:18:13;57813.34;;;-144.78;62.59
55994;BME280;67425;52.126;20.638;2024-02-26T00:20:38;57800.88;;;-144.78;62.66
55994;BME280;67425;52.126;20.638;2024-02-26T00:23:05;57800.88;;;-144.78;62.57
55994;BME280;67425;52.126;20.638;2024-02-26T00:25:30;57811.25;;;-144.78;62.74
55994;BME280;67425;52.126;20.638;2024-02-26T00:27:55;57819.56;;;-144.78;62.81
55994;BME280;67425;52.126;20.638;2024-02-26T00:30:21;57836.19;;;-144.78;62.93
55994;BME280;67425;52.126;20.638;2024-02-26T00:32:47;57832.03;;;-144.78;62.71
55994;BME280;67425;52.126;20.638;2024-02-26T00:35:12;57827.88;;;-144.78;61.92
55994;BME280;67425;52.126;20.638;2024-02-26T00:37:38;57821.63;;;-144.78;62.15
55994;BME280;67425;52.126;20.638;2024-02-26T00:40:03;57838.25;;;-144.78;62.67
55994;BME280;67425;52.126;20.638;2024-02-26T00:42:28;57815.41;;;-144.78;62.87
55994;BME280;67425;52.126;20.638;2024-02-26T00:44:54;57859.03;;;-144.78;62.94
55994;BME280;67425;52.126;20.638;2024-02-26T00:47:19;57842.41;;;-144.78;62.79
55994;BME280;67425;52.126;20.638;2024-02-26T00:49:44;57827.88;;;-144.78;63.28
55994;BME280;67425;52.126;20.638;2024-02-26T00:52:10;57836.19;;;-144.78;62.68
55994;BME280;67425;52.126;20.638;2024-02-26T00:54:35;57852.78;;;-144.78;63.14
55994;BME280;67425;52.126;20.638;2024-02-26T00:57:00;57829.94;;;-144.78;63.14
55994;BME280;67425;52.126;20.638;2024-02-26T00:59:26;57859.03;;;-144.78;64.18
55994;BME280;67425;52.126;20.638;2024-02-26T01:01:51;57848.63;;;-144.78;63.70
55994;BME280;67425;52.126;20.638;2024-02-26T01:04:16;57859.03;;;-144.78;63.64
55994;BME280;67425;52.126;20.638;2024-02-26T01:06:41;57854.88;;;-144.78;63.08
55994;BME280;67425;52.126;20.638;2024-02-26T01:09:07;57838.25;;;-144.78;63.02
55994;BME280;67425;52.126;20.638;2024-02-26T01:11:33;57829.94;;;-144.78;62.96
55994;BME280;67425;52.126;20.638;2024-02-26T01:13:58;57817.47;;;-144.78;63.88
55994;BME280;67425;52.126;20.638;2024-02-26T01:16:23;57863.19;;;-144.78;63.37
55994;BME280;67425;52.126;20.638;2024-02-26T01:18:49;57844.47;;;-144.78;63.12
55994;BME280;67425;52.126;20.638;2024-02-26T01:21:14;57842.41;;;-144.78;64.12
55994;BME280;67425;52.126;20.638;2024-02-26T01:23:39;57854.88;;;-144.78;65.04
55994;BME280;67425;52.126;20.638;2024-02-26T01:26:05;57890.19;;;-144.78;66.76
55994;BME280;67425;52.126;20.638;2024-02-26T01:28:30;57846.56;;;-144.78;66.91
55994;BME280;67425;52.126;20.638;2024-02-26T01:30:55;57859.03;;;-144.78;66.75
55994;BME280;67425;52.126;20.638;2024-02-26T01:33:20;57823.72;;;-144.78;64.91
55994;BME280;67425;52.126;20.638;2024-02-26T01:35:46;57832.03;;;-144.78;64.31
55994;BME280;67425;52.126;20.638;2024-02-26T01:38:11;57844.47;;;-144.78;64.13
55994;BME280;67425;52.126;20.638;2024-02-26T01:40:37;57850.72;;;-144.78;63.96
55994;BME280;67425;52.126;20.638;2024-02-26T01:43:02;57854.88;;;-144.78;63.25
55994;BME280;67425;52.126;20.638;2024-02-26T01:45:27;57850.72;;;-144.78;63.51
55994;BME280;67425;52.126;20.638;2024-02-26T01:47:53;57856.94;;;-144.78;63.52
55994;BME280;67425;52.126;20.638;2024-02-26T01:50:19;57852.78;;;-144.78;64.68
55994;BME280;67425;52.126;20.638;2024-02-26T01:52:49;57861.09;;;-144.78;64.50
55994;BME280;67425;52.126;20.638;2024-02-26T01:55:15;57859.03;;;-144.78;65.39
55994;BME280;67425;52.126;20.638;2024-02-26T01:57:44;57861.09;;;-144.78;65.20
55994;BME280;67425;52.126;20.638;2024-02-26T02:00:10;57859.03;;;-144.78;64.73
55994;BME280;67425;52.126;20.638;2024-02-26T02:02:36;57852.78;;;-144.78;64.28
55994;BME280;67425;52.126;20.638;2024-02-26T02:05:01;57871.50;;;-144.78;64.05
55994;BME280;67425;52.126;20.638;2024-02-26T02:07:27;57836.19;;;-144.78;63.94
55994;BME280;67425;52.126;20.638;2024-02-26T02:09:53;57838.25;;;-144.78;64.83
55994;BME280;67425;52.126;20.638;2024-02-26T02:12:18;57840.34;;;-144.78;62.94
55994;BME280;67425;52.126;20.638;2024-02-26T02:14:44;57827.88;;;-144.78;62.76
55994;BME280;67425;52.126;20.638;2024-02-26T02:17:09;57871.50;;;-144.78;63.37
55994;BME280;67425;52.126;20.638;2024-02-26T02:19:35;57809.19;;;-144.78;62.76
55994;BME280;67425;52.126;20.638;2024-02-26T02:22:00;57842.41;;;-144.78;62.95
55994;BME280;67425;52.126;20.638;2024-02-26T02:24:25;57846.56;;;-144.78;62.46
55994;BME280;67425;52.126;20.638;2024-02-26T02:26:50;57871.50;;;-144.78;63.14
55994;BME280;67425;52.126;20.638;2024-02-26T02:29:16;57829.94;;;-144.78;63.53
55994;BME280;67425;52.126;20.638;2024-02-26T02:31:41;57848.63;;;-144.78;62.77
55994;BME280;67425;52.126;20.638;2024-02-26T02:34:07;57894.34;;;-144.78;63.07
55994;BME280;67425;52.126;20.638;2024-02-26T02:36:33;57840.34;;;-144.78;63.62
55994;BME280;67425;52.126;20.638;2024-02-26T02:38:58;57838.25;;;-144.78;62.80
55994;BME280;67425;52.126;20.638;2024-02-26T02:41:23;57869.41;;;-144.78;62.63
55994;BME280;67425;52.126;20.638;2024-02-26T02:43:49;57871.50;;;-144.78;63.38
55994;BME280;67425;52.126;20.638;2024-02-26T02:46:14;57875.63;;;-144.78;63.05
55994;BME280;67425;52.126;20.638;2024-02-26T02:48:41;57838.25;;;-144.78;63.05
55994;BME280;67425;52.126;20.638;2024-02-26T02:51:06;57871.50;;;-144.78;63.93
55994;BME280;67425;52.126;20.638;2024-02-26T02:53:31;57865.25;;;-144.78;62.31
55994;BME280;67425;52.126;20.638;2024-02-26T02:55:57;57836.19;;;-144.78;62.83
55994;BME280;67425;52.126;20.638;2024-02-26T02:58:22;57867.34;;;-144.78;64.18
55994;BME280;67425;52.126;20.638;2024-02-26T03:00:47;57865.25;;;-144.78;64.18
55994;BME280;67425;52.126;20.638;2024-02-26T03:03:12;57856.94;;;-144.78;64.55
55994;BME280;67425;52.126;20.638;2024-02-26T03:05:37;57888.09;;;-144.78;64.33
55994;BME280;67425;52.126;20.638;2024-02-26T03:08:03;57861.09;;;-144.78;63.99
55994;BME280;67425;52.126;20.638;2024-02-26T03:10:28;57867.34;;;-144.78;64.53
55994;BME280;67425;52.126;20.638;2024-02-26T03:12:54;57883.94;;;-144.78;63.36
55994;BME280;67425;52.126;20.638;2024-02-26T03:15:19;57900.56;;;-144.78;65.83
55994;BME280;67425;52.126;20.638;2024-02-26T03:17:44;57877.72;;;-144.78;65.58
55994;BME280;67425;52.126;20.638;2024-02-26T03:20:10;57883.94;;;-144.78;65.23
55994;BME280;67425;52.126;20.638;2024-02-26T03:22:35;57829.94;;;-144.78;63.73
55994;BME280;67425;52.126;20.638;2024-02-26T03:25:01;57854.88;;;-144.78;63.77
55994;BME280;67425;52.126;20.638;2024-02-26T03:27:26;57888.09;;;-144.78;64.38
55994;BME280;67425;52.126;20.638;2024-02-26T03:29:51;57869.41;;;-144.78;65.15
55994;BME280;67425;52.126;20.638;2024-02-26T03:32:17;57859.03;;;-144.78;63.96
55994;BME280;67425;52.126;20.638;2024-02-26T03:34:43;57881.88;;;-144.78;64.28
55994;BME280;67425;52.126;20.638;2024-02-26T03:37:08;57886.03;;;-144.78;63.24
55994;BME280;67425;52.126;20.638;2024-02-26T03:39:35;57877.72;;;-144.78;64.17
55994;BME280;67425;52.126;20.638;2024-02-26T03:42:00;57873.56;;;-144.78;65.29
55994;BME280;67425;52.126;20.638;2024-02-26T03:44:26;57875.63;;;-144.78;63.88
55994;BME280;67425;52.126;20.638;2024-02-26T03:46:51;57896.41;;;-144.78;65.27
55994;BME280;67425;52.126;20.638;2024-02-26T03:49:16;57900.56;;;-144.78;65.70
55994;BME280;67425;52.126;20.638;2024-02-26T03:51:42;57873.56;;;-144.78;64.62
55994;BME280;67425;52.126;20.638;2024-02-26T03:54:07;57890.19;;;-144.78;64.79
55994;BME280;67425;52.126;20.638;2024-02-26T03:56:32;57906.78;;;-144.78;65.09
55994;BME280;67425;52.126;20.638;2024-02-26T03:58:57;57865.25;;;-144.78;65.29
55994;BME280;67425;52.126;20.638;2024-02-26T04:01:24;57869.41;;;-144.78;64.55
55994;BME280;67425;52.126;20.638;2024-02-26T04:03:49;57886.03;;;-144.78;64.06
55994;BME280;67425;52.126;20.638;2024-02-26T04:06:15;57877.72;;;-144.78;64.16
55994;BME280;67425;52.126;20.638;2024-02-26T04:08:43;57856.94;;;-144.78;63.65
55994;BME280;67425;52.126;20.638;2024-02-26T04:11:08;57892.25;;;-144.78;63.55
55994;BME280;67425;52.126;20.638;2024-02-26T04:13:33;57898.50;;;-144.78;63.86
55994;BME280;67425;52.126;20.638;2024-02-26T04:15:59;57865.25;;;-144.78;64.08
55994;BME280;67425;52.126;20.638;2024-02-26T04:18:26;57877.72;;;-144.78;64.51
55994;BME280;67425;52.126;20.638;2024-02-26T04:20:51;57925.50;;;-144.78;64.76
55994;BME280;67425;52.126;20.638;2024-02-26T04:23:16;57865.25;;;-144.78;64.79
55994;BME280;67425;52.126;20.638;2024-02-26T04:25:42;57883.94;;;-144.78;64.42
55994;BME280;67425;52.126;20.638;2024-02-26T04:28:07;57879.78;;;-144.78;64.70
55994;BME280;67425;52.126;20.638;2024-02-26T04:30:32;57910.94;;;-144.78;64.45
55994;BME280;67425;52.126;20.638;2024-02-26T04:32:57;57900.56;;;-144.78;65.17
55994;BME280;67425;52.126;20.638;2024-02-26T04:35:23;57865.25;;;-144.78;64.12
55994;BME280;67425;52.126;20.638;2024-02-26T04:37:48;57910.94;;;-144.78;63.97
55994;BME280;67425;52.126;20.638;2024-02-26T04:40:13;57879.78;;;-144.78;64.22
55994;BME280;67425;52.126;20.638;2024-02-26T04:42:38;57867.34;;;-144.78;63.90
55994;BME280;67425;52.126;20.638;2024-02-26T04:45:04;57881.88;;;-144.78;64.26
55994;BME280;67425;52.126;20.638;2024-02-26T04:47:29;57886.03;;;-144.78;65.61
55994;BME280;67425;52.126;20.638;2024-02-26T04:49:55;57904.72;;;-144.78;64.90
55994;BME280;67425;52.126;20.638;2024-02-26T04:52:20;57873.56;;;-144.78;66.15
55994;BME280;67425;52.126;20.638;2024-02-26T04:54:45;57906.78;;;-144.78;66.25
55994;BME280;67425;52.126;20.638;2024-02-26T04:57:11;57896.41;;;-144.78;66.11
55994;BME280;67425;52.126;20.638;2024-02-26T04:59:36;57871.50;;;-144.78;66.14
55994;BME280;67425;52.126;20.638;2024-02-26T05:02:01;57900.56;;;-144.78;66.55
55994;BME280;67425;52.126;20.638;2024-02-26T05:04:27;57902.63;;;-144.78;66.13
55994;BME280;67425;52.126;20.638;2024-02-26T05:06:52;57888.09;;;-144.78;67.64
55994;BME280;67425;52.126;20.638;2024-02-26T05:09:18;57915.09;;;-144.78;67.35
55994;BME280;67425;52.126;20.638;2024-02-26T05:11:43;57896.41;;;-144.78;67.97
55994;BME280;67425;52.126;20.638;2024-02-26T05:14:09;57896.41;;;-144.78;66.59
55994;BME280;67425;52.126;20.638;2024-02-26T05:16:34;57900.56;;;-144.78;68.07
55994;BME280;67425;52.126;20.638;2024-02-26T05:19:00;57886.03;;;-144.78;67.23
55994;BME280;67425;52.126;20.638;2024-02-26T05:21:25;57894.34;;;-144.78;68.98
55994;BME280;67425;52.126;20.638;2024-02-26T05:23:50;57892.25;;;-144.78;70.33
55994;BME280;67425;52.126;20.638;2024-02-26T05:26:22;57910.94;;;-144.78;69.49
55994;BME280;67425;52.126;20.638;2024-02-26T05:28:48;57902.63;;;-144.78;68.79
55994;BME280;67425;52.126;20.638;2024-02-26T05:31:13;57875.63;;;-144.78;68.52
55994;BME280;67425;52.126;20.638;2024-02-26T05:33:39;57865.25;;;-144.78;66.90
55994;BME280;67425;52.126;20.638;2024-02-26T05:36:04;57894.34;;;-144.78;67.01
55994;BME280;67425;52.126;20.638;2024-02-26T05:38:30;57869.41;;;-144.78;66.71
55994;BME280;67425;52.126;20.638;2024-02-26T05:40:56;57886.03;;;-144.78;66.10
55994;BME280;67425;52.126;20.638;2024-02-26T05:43:22;57894.34;;;-144.78;67.04
55994;BME280;67425;52.126;20.638;2024-02-26T05:45:47;57867.34;;;-144.78;66.40
55994;BME280;67425;52.126;20.638;2024-02-26T05:48:12;57856.94;;;-144.78;67.75
55994;BME280;67425;52.126;20.638;2024-02-26T05:50:37;57867.34;;;-144.78;66.48
55994;BME280;67425;52.126;20.638;2024-02-26T05:53:03;57904.72;;;-144.78;67.27
55994;BME280;67425;52.126;20.638;2024-02-26T05:55:28;57869.41;;;-144.78;66.69
55994;BME280;67425;52.126;20.638;2024-02-26T05:57:53;57875.63;;;-144.78;66.14
55994;BME280;67425;52.126;20.638;2024-02-26T06:00:18;57861.09;;;-144.78;65.77
55994;BME280;67425;52.126;20.638;2024-02-26T06:02:44;57879.78;;;-144.78;65.55
55994;BME280;67425;52.126;20.638;2024-02-26T06:05:09;57871.50;;;-144.78;66.39
55994;BME280;67425;52.126;20.638;2024-02-26T06:07:34;57896.41;;;-144.78;67.50
55994;BME280;67425;52.126;20.638;2024-02-26T06:10:02;57848.63;;;-144.78;66.79
55994;BME280;67425;52.126;20.638;2024-02-26T06:12:27;57867.34;;;-144.78;66.34
55994;BME280;67425;52.126;20.638;2024-02-26T06:14:53;57877.72;;;-144.78;66.48
55994;BME280;67425;52.126;20.638;2024-02-26T06:17:18;57842.41;;;-144.78;67.46
55994;BME280;67425;52.126;20.638;2024-02-26T06:19:44;57840.34;;;-144.78;68.59
55994;BME280;67425;52.126;20.638;2024-02-26T06:22:09;57854.88;;;-144.78;68.99
55994;BME280;67425;52.126;20.638;2024-02-26T06:24:34;57848.63;;;-144.78;68.75
55994;BME280;67425;52.126;20.638;2024-02-26T06:26:59;57819.56;;;-144.78;68.60
55994;BME280;67425;52.126;20.638;2024-02-26T06:29:25;57852.78;;;-144.78;68.33
55994;BME280;67425;52.126;20.638;2024-02-26T06:31:50;57825.78;;;-144.78;68.07
55994;BME280;67425;52.126;20.638;2024-02-26T06:34:15;57838.25;;;-144.78;67.48
55994;BME280;67425;52.126;20.638;2024-02-26T06:36:41;57825.78;;;-144.78;67.81
55994;BME280;67425;52.126;20.638;2024-02-26T06:39:06;57840.34;;;-144.78;68.11
55994;BME280;67425;52.126;20.638;2024-02-26T06:41:31;57838.25;;;-144.78;68.03
55994;BME280;67425;52.126;20.638;2024-02-26T06:43:56;57813.34;;;-144.78;67.98
55994;BME280;67425;52.126;20.638;2024-02-26T06:46:22;57829.94;;;-144.78;67.57
55994;BME280;67425;52.126;20.638;2024-02-26T06:48:48;57827.88;;;-144.78;66.76
55994;BME280;67425;52.126;20.638;2024-02-26T06:51:13;57796.72;;;-144.78;66.97
55994;BME280;67425;52.126;20.638;2024-02-26T06:53:39;57790.47;;;-144.78;67.40
55994;BME280;67425;52.126;20.638;2024-02-26T06:56:04;57821.63;;;-144.78;68.31
55994;BME280;67425;52.126;20.638;2024-02-26T06:58:29;57817.47;;;-144.78;68.19
55994;BME280;67425;52.126;20.638;2024-02-26T07:00:54;57784.25;;;-144.78;67.99
55994;BME280;67425;52.126;20.638;2024-02-26T07:03:19;57773.88;;;-144.78;68.80
55994;BME280;67425;52.126;20.638;2024-02-26T07:05:45;57798.78;;;-144.78;67.49
55994;BME280;67425;52.126;20.638;2024-02-26T07:08:11;57800.88;;;-144.78;67.17
55994;BME280;67425;52.126;20.638;2024-02-26T07:10:36;57771.78;;;-144.78;67.21
55994;BME280;67425;52.126;20.638;2024-02-26T07:13:01;57790.47;;;-144.78;66.86
55994;BME280;67425;52.126;20.638;2024-02-26T07:15:26;57778.03;;;-144.78;67.55
55994;BME280;67425;52.126;20.638;2024-02-26T07:17:52;57763.47;;;-144.78;67.00
55994;BME280;67425;52.126;20.638;2024-02-26T07:20:17;57761.41;;;-144.78;66.17
55994;BME280;67425;52.126;20.638;2024-02-26T07:22:43;57761.41;;;-144.78;66.30
55994;BME280;67425;52.126;20.638;2024-02-26T07:25:08;57767.63;;;-144.78;65.23
55994;BME280;67425;52.126;20.638;2024-02-26T07:27:38;57742.72;;;-144.78;65.22
55994;BME280;67425;52.126;20.638;2024-02-26T07:30:03;57767.63;;;-144.78;65.09
55994;BME280;67425;52.126;20.638;2024-02-26T07:32:28;57773.88;;;-144.78;63.89
55994;BME280;67425;52.126;20.638;2024-02-26T07:34:54;57730.25;;;-144.78;64.82
55994;BME280;67425;52.126;20.638;2024-02-26T07:37:19;57746.88;;;-144.78;63.94
55994;BME280;67425;52.126;20.638;2024-02-26T07:39:44;57740.63;;;-144.78;64.75
55994;BME280;67425;52.126;20.638;2024-02-26T07:42:09;57755.19;;;-144.78;63.56
55994;BME280;67425;52.126;20.638;2024-02-26T07:44:34;57740.63;;;-144.78;63.12
55994;BME280;67425;52.126;20.638;2024-02-26T07:47:00;57763.47;;;-144.78;62.61
55994;BME280;67425;52.126;20.638;2024-02-26T07:49:25;57748.94;;;-144.78;62.68
55994;BME280;67425;52.126;20.638;2024-02-26T07:51:50;57757.25;;;-144.78;63.04
55994;BME280;67425;52.126;20.638;2024-02-26T07:54:16;57724.03;;;-144.78;62.27
55994;BME280;67425;52.126;20.638;2024-02-26T07:56:41;57713.63;;;-144.78;62.02
55994;BME280;67425;52.126;20.638;2024-02-26T07:59:06;57699.09;;;-144.78;61.09
55994;BME280;67425;52.126;20.638;2024-02-26T08:01:32;57697.03;;;-144.78;60.72
55994;BME280;67425;52.126;20.638;2024-02-26T08:03:58;57715.72;;;-144.78;60.44
55994;BME280;67425;52.126;20.638;2024-02-26T08:06:23;57717.78;;;-144.78;59.79
55994;BME280;67425;52.126;20.638;2024-02-26T08:08:49;57713.63;;;-144.78;59.29
55994;BME280;67425;52.126;20.638;2024-02-26T08:11:15;57694.94;;;-144.78;58.91
55994;BME280;67425;52.126;20.638;2024-02-26T08:13:43;57690.78;;;-144.78;58.99
55994;BME280;67425;52.126;20.638;2024-02-26T08:16:08;57667.94;;;-144.78;57.35
55994;BME280;67425;52.126;20.638;2024-02-26T08:18:33;57674.19;;;-144.78;57.22
55994;BME280;67425;52.126;20.638;2024-02-26T08:20:58;57655.50;;;-144.78;56.69
55994;BME280;67425;52.126;20.638;2024-02-26T08:23:24;57672.09;;;-144.78;55.91
55994;BME280;67425;52.126;20.638;2024-02-26T08:25:50;57670.03;;;-144.78;55.83
55994;BME280;67425;52.126;20.638;2024-02-26T08:28:15;57653.41;;;-144.78;55.58
55994;BME280;67425;52.126;20.638;2024-02-26T08:30:42;57674.19;;;-144.78;55.35
55994;BME280;67425;52.126;20.638;2024-02-26T08:33:08;57651.34;;;-144.78;55.76
55994;BME280;67425;52.126;20.638;2024-02-26T08:35:33;57672.09;;;-144.78;55.54
55994;BME280;67425;52.126;20.638;2024-02-26T08:37:59;57672.09;;;-144.78;54.53
55994;BME280;67425;52.126;20.638;2024-02-26T08:40:24;57672.09;;;-144.78;55.25
55994;BME280;67425;52.126;20.638;2024-02-26T08:42:49;57699.09;;;-144.78;55.52
55994;BME280;67425;52.126;20.638;2024-02-26T08:45:15;57674.19;;;-144.78;54.62
55994;BME280;67425;52.126;20.638;2024-02-26T08:47:40;57674.19;;;-144.78;54.08
55994;BME280;67425;52.126;20.638;2024-02-26T08:50:05;57707.41;;;-144.78;54.04
55994;BME280;67425;52.126;20.638;2024-02-26T08:52:31;57659.63;;;-144.78;54.10
55994;BME280;67425;52.126;20.638;2024-02-26T08:54:57;57670.03;;;-144.78;54.07
55994;BME280;67425;52.126;20.638;2024-02-26T08:57:22;57670.03;;;-144.78;53.73
55994;BME280;67425;52.126;20.638;2024-02-26T08:59:47;57665.88;;;-144.78;53.57
55994;BME280;67425;52.126;20.638;2024-02-26T09:02:13;57626.41;;;-144.78;53.54
55994;BME280;67425;52.126;20.638;2024-02-26T09:04:38;57684.56;;;-144.78;53.16
55994;BME280;67425;52.126;20.638;2024-02-26T09:07:03;57653.41;;;-144.78;53.08
55994;BME280;67425;52.126;20.638;2024-02-26T09:09:28;57638.88;;;-144.78;53.35
55994;BME280;67425;52.126;20.638;2024-02-26T09:11:54;57645.09;;;-144.78;52.77
55994;BME280;67425;52.126;20.638;2024-02-26T09:14:20;57630.56;;;-144.78;51.98
55994;BME280;67425;52.126;20.638;2024-02-26T09:16:45;57624.34;;;-144.78;52.29
55994;BME280;67425;52.126;20.638;2024-02-26T09:19:12;57684.56;;;-144.78;52.93
55994;BME280;67425;52.126;20.638;2024-02-26T09:21:37;57649.25;;;-144.78;52.38
55994;BME280;67425;52.126;20.638;2024-02-26T09:24:06;57643.03;;;-144.78;52.36
55994;BME280;67425;52.126;20.638;2024-02-26T09:26:32;57609.78;;;-144.78;51.74
55994;BME280;67425;52.126;20.638;2024-02-26T09:28:57;57663.78;;;-144.78;51.52
55994;BME280;67425;52.126;20.638;2024-02-26T09:31:23;57647.19;;;-144.78;51.87
55994;BME280;67425;52.126;20.638;2024-02-26T09:33:49;57613.94;;;-144.78;51.98
55994;BME280;67425;52.126;20.638;2024-02-26T09:36:14;57632.66;;;-144.78;51.89
55994;BME280;67425;52.126;20.638;2024-02-26T09:38:40;57628.50;;;-144.78;51.52
55994;BME280;67425;52.126;20.638;2024-02-26T09:41:05;57603.56;;;-144.78;51.04
55994;BME280;67425;52.126;20.638;2024-02-26T09:43:36;57640.94;;;-144.78;51.64
55994;BME280;67425;52.126;20.638;2024-02-26T09:46:04;57599.41;;;-144.78;50.69
55994;BME280;67425;52.126;20.638;2024-02-26T09:48:30;57620.19;;;-144.78;50.00
55994;BME280;67425;52.126;20.638;2024-02-26T09:50:56;57634.72;;;-144.78;49.90
55994;BME280;67425;52.126;20.638;2024-02-26T09:53:21;57655.50;;;-144.78;50.20
55994;BME280;67425;52.126;20.638;2024-02-26T09:55:47;57626.41;;;-144.78;49.90
55994;BME280;67425;52.126;20.638;2024-02-26T09:58:12;57613.94;;;-144.78;49.78
55994;BME280;67425;52.126;20.638;2024-02-26T10:00:43;57628.50;;;-144.78;49.24
55994;BME280;67425;52.126;20.638;2024-02-26T10:03:12;57624.34;;;-144.78;49.05
55994;BME280;67425;52.126;20.638;2024-02-26T10:05:39;57595.25;;;-144.78;49.16
55994;BME280;67425;52.126;20.638;2024-02-26T10:08:06;57647.19;;;-144.78;49.76
55994;BME280;67425;52.126;20.638;2024-02-26T10:10:33;57638.88;;;-144.78;49.81
55994;BME280;67425;52.126;20.638;2024-02-26T10:12:59;57603.56;;;-144.78;49.25
55994;BME280;67425;52.126;20.638;2024-02-26T10:15:25;57599.41;;;-144.78;48.98
55994;BME280;67425;52.126;20.638;2024-02-26T10:17:50;57616.03;;;-144.78;50.35
55994;BME280;67425;52.126;20.638;2024-02-26T10:20:16;57609.78;;;-144.78;48.81
55994;BME280;67425;52.126;20.638;2024-02-26T10:22:48;57578.66;;;-144.78;48.98
55994;BME280;67425;52.126;20.638;2024-02-26T10:25:13;57611.88;;;-144.78;49.59
55994;BME280;67425;52.126;20.638;2024-02-26T10:27:42;57601.50;;;-144.78;49.04
55994;BME280;67425;52.126;20.638;2024-02-26T10:30:17;57595.25;;;-144.78;48.90
55994;BME280;67425;52.126;20.638;2024-02-26T10:32:44;57591.09;;;-144.78;49.17
55994;BME280;67425;52.126;20.638;2024-02-26T10:35:09;57618.09;;;-144.78;50.57
55994;BME280;67425;52.126;20.638;2024-02-26T10:37:34;57622.25;;;-144.78;50.53
55994;BME280;67425;52.126;20.638;2024-02-26T10:40:00;57603.56;;;-144.78;51.91
55994;BME280;67425;52.126;20.638;2024-02-26T10:42:27;57593.19;;;-144.78;52.18
55994;BME280;67425;52.126;20.638;2024-02-26T10:44:53;57636.78;;;-144.78;51.32
55994;BME280;67425;52.126;20.638;2024-02-26T10:47:18;57632.66;;;-144.78;52.21
55994;BME280;67425;52.126;20.638;2024-02-26T10:49:47;57586.94;;;-144.78;52.24
55994;BME280;67425;52.126;20.638;2024-02-26T10:52:15;57620.19;;;-144.78;53.34
55994;BME280;67425;52.126;20.638;2024-02-26T10:54:42;57595.25;;;-144.78;51.98
55994;BME280;67425;52.126;20.638;2024-02-26T10:57:12;57601.50;;;-144.78;51.92
55994;BME280;67425;52.126;20.638;2024-02-26T10:59:38;57626.41;;;-144.78;52.27
55994;BME280;67425;52.126;20.638;2024-02-26T11:02:04;57613.94;;;-144.78;51.96
55994;BME280;67425;52.126;20.638;2024-02-26T11:04:32;57626.41;;;-144.78;52.65
55994;BME280;67425;52.126;20.638;2024-02-26T11:06:58;57630.56;;;-144.78;53.16
55994;BME280;67425;52.126;20.638;2024-02-26T11:09:24;57613.94;;;-144.78;52.31
55994;BME280;67425;52.126;20.638;2024-02-26T11:11:50;57611.88;;;-144.78;51.55
55994;BME280;67425;52.126;20.638;2024-02-26T11:14:19;57628.50;;;-144.78;51.95
55994;BME280;67425;52.126;20.638;2024-02-26T11:16:45;57638.88;;;-144.78;51.73
55994;BME280;67425;52.126;20.638;2024-02-26T11:19:11;57603.56;;;-144.78;52.51
55994;BME280;67425;52.126;20.638;2024-02-26T11:21:38;57632.66;;;-144.78;51.04
55994;BME280;67425;52.126;20.638;2024-02-26T11:24:05;57640.94;;;-144.78;52.33
55994;BME280;67425;52.126;20.638;2024-02-26T11:26:32;57618.09;;;-144.78;51.54
55994;BME280;67425;52.126;20.638;2024-02-26T11:28:58;57628.50;;;-144.78;51.69
55994;BME280;67425;52.126;20.638;2024-02-26T11:31:24;57630.56;;;-144.78;52.11
55994;BME280;67425;52.126;20.638;2024-02-26T11:33:52;57616.03;;;-144.78;52.10
55994;BME280;67425;52.126;20.638;2024-02-26T11:36:18;57618.09;;;-144.78;52.50
55994;BME280;67425;52.126;20.638;2024-02-26T11:38:44;57667.94;;;-144.78;53.50
55994;BME280;67425;52.126;20.638;2024-02-26T11:41:13;57624.34;;;-144.78;55.02
55994;BME280;67425;52.126;20.638;2024-02-26T11:43:52;57645.09;;;-144.78;53.99
55994;BME280;67425;52.126;20.638;2024-02-26T11:49:02;57640.94;;;-144.78;53.40
55994;BME280;67425;52.126;20.638;2024-02-26T11:51:28;57601.50;;;-144.78;52.76
55994;BME280;67425;52.126;20.638;2024-02-26T11:53:57;57611.88;;;-144.78;53.27
55994;BME280;67425;52.126;20.638;2024-02-26T11:56:23;57609.78;;;-144.78;53.07
55994;BME280;67425;52.126;20.638;2024-02-26T11:58:48;57618.09;;;-144.78;52.64
55994;BME280;67425;52.126;20.638;2024-02-26T12:01:37;57643.03;;;-144.78;52.35
55994;BME280;67425;52.126;20.638;2024-02-26T12:04:04;57618.09;;;-144.78;52.30
55994;BME280;67425;52.126;20.638;2024-02-26T12:06:29;57634.72;;;-144.78;53.88
55994;BME280;67425;52.126;20.638;2024-02-26T12:08:56;57616.03;;;-144.78;53.78
55994;BME280;67425;52.126;20.638;2024-02-26T12:11:21;57609.78;;;-144.78;52.89
55994;BME280;67425;52.126;20.638;2024-02-26T12:13:49;57622.25;;;-144.78;52.55
55994;BME280;67425;52.126;20.638;2024-02-26T12:16:34;57649.25;;;-144.78;52.02
55994;BME280;67425;52.126;20.638;2024-02-26T12:18:59;57613.94;;;-144.78;50.99
55994;BME280;67425;52.126;20.638;2024-02-26T12:21:25;57616.03;;;-144.78;52.42
55994;BME280;67425;52.126;20.638;2024-02-26T12:23:50;57593.19;;;-144.78;52.54
55994;BME280;67425;52.126;20.638;2024-02-26T12:26:15;57616.03;;;-144.78;50.20